Mentone, California
Current Conditions -  °F | °C
As of 1:48 PM on Tuesday 21 Oct 2014 (Local Time) from KSBD Reporting Station
Scattered Clouds Scattered Clouds  
Wind Chill: 79°   Ceiling: Unl
Heat Index: 79°   Visibility: 7mi
Dew Point: 46°   Wind: 6mph
Humidity: 32%   Direction: 250°WSW
Pressure: 29.87"   Gusts: NA
Location:  34.07°N, 117.13°W
Report Text: KSBD 212048Z 25005KT 7SM SCT150 26/08 A2987
Loading
Personal Weather Stations






























Interactive Weather Map
Tropical Storm Tracking
New forecast layout! Learn more

10-Day Weather Forecast

Advertisements
Track Severe Weather on mobile